sensor_id;sensor_type;location;lat;lon;timestamp;P1;durP1;ratioP1;P2;durP2;ratioP2
51612;SDS011;37694;51.748;14.326;2022-08-01T00:01:00;2.13;;;1.48;;
51612;SDS011;37694;51.748;14.326;2022-08-01T00:03:25;1.60;;;1.50;;
51612;SDS011;37694;51.748;14.326;2022-08-01T00:05:51;4.20;;;1.50;;
51612;SDS011;37694;51.748;14.326;2022-08-01T00:08:16;3.53;;;1.42;;
51612;SDS011;37694;51.748;14.326;2022-08-01T00:10:42;1.52;;;1.42;;
51612;SDS011;37694;51.748;14.326;2022-08-01T00:13:08;6.80;;;1.70;;
51612;SDS011;37694;51.748;14.326;2022-08-01T00:15:33;4.47;;;1.60;;
51612;SDS011;37694;51.748;14.326;2022-08-01T00:17:59;5.63;;;1.60;;
51612;SDS011;37694;51.748;14.326;2022-08-01T00:20:25;1.50;;;1.40;;
51612;SDS011;37694;51.748;14.326;2022-08-01T00:22:50;6.38;;;1.80;;
51612;SDS011;37694;51.748;14.326;2022-08-01T00:25:16;4.18;;;2.05;;
51612;SDS011;37694;51.748;14.326;2022-08-01T00:27:41;2.85;;;1.70;;
51612;SDS011;37694;51.748;14.326;2022-08-01T00:30:07;1.88;;;1.75;;
51612;SDS011;37694;51.748;14.326;2022-08-01T00:32:33;2.70;;;1.83;;
51612;SDS011;37694;51.748;14.326;2022-08-01T00:34:59;1.90;;;1.70;;
51612;SDS011;37694;51.748;14.326;2022-08-01T00:37:24;2.80;;;1.50;;
51612;SDS011;37694;51.748;14.326;2022-08-01T00:39:50;2.00;;;1.80;;
51612;SDS011;37694;51.748;14.326;2022-08-01T00:42:15;2.03;;;1.92;;
51612;SDS011;37694;51.748;14.326;2022-08-01T00:44:41;8.43;;;1.70;;
51612;SDS011;37694;51.748;14.326;2022-08-01T00:47:07;3.90;;;1.80;;
51612;SDS011;37694;51.748;14.326;2022-08-01T00:49:33;3.30;;;1.73;;
51612;SDS011;37694;51.748;14.326;2022-08-01T00:51:59;1.90;;;1.80;;
51612;SDS011;37694;51.748;14.326;2022-08-01T00:54:25;4.82;;;2.00;;
51612;SDS011;37694;51.748;14.326;2022-08-01T00:56:52;3.28;;;1.77;;
51612;SDS011;37694;51.748;14.326;2022-08-01T00:59:19;2.58;;;1.58;;
51612;SDS011;37694;51.748;14.326;2022-08-01T01:01:46;1.85;;;1.73;;
51612;SDS011;37694;51.748;14.326;2022-08-01T01:04:12;2.10;;;1.90;;
51612;SDS011;37694;51.748;14.326;2022-08-01T01:17:58;2.00;;;1.65;;
51612;SDS011;37694;51.748;14.326;2022-08-01T01:20:30;2.22;;;1.90;;
51612;SDS011;37694;51.748;14.326;2022-08-01T01:26:38;2.10;;;1.90;;
51612;SDS011;37694;51.748;14.326;2022-08-01T01:34:23;2.17;;;1.90;;
51612;SDS011;37694;51.748;14.326;2022-08-01T01:36:51;4.85;;;1.92;;
51612;SDS011;37694;51.748;14.326;2022-08-01T01:39:18;2.17;;;1.98;;
51612;SDS011;37694;51.748;14.326;2022-08-01T01:41:47;5.10;;;3.13;;
51612;SDS011;37694;51.748;14.326;2022-08-01T01:44:14;4.72;;;2.38;;
51612;SDS011;37694;51.748;14.326;2022-08-01T01:46:41;2.33;;;2.00;;
51612;SDS011;37694;51.748;14.326;2022-08-01T01:49:07;1.95;;;1.80;;
51612;SDS011;37694;51.748;14.326;2022-08-01T01:51:38;4.78;;;2.08;;
51612;SDS011;37694;51.748;14.326;2022-08-01T01:54:06;4.38;;;2.13;;
51612;SDS011;37694;51.748;14.326;2022-08-01T01:56:33;2.85;;;2.20;;
51612;SDS011;37694;51.748;14.326;2022-08-01T01:59:01;2.22;;;2.00;;
51612;SDS011;37694;51.748;14.326;2022-08-01T02:01:29;4.47;;;2.05;;
51612;SDS011;37694;51.748;14.326;2022-08-01T02:03:57;3.70;;;2.25;;
51612;SDS011;37694;51.748;14.326;2022-08-01T02:06:25;2.50;;;2.03;;
51612;SDS011;37694;51.748;14.326;2022-08-01T02:08:52;5.22;;;2.03;;
51612;SDS011;37694;51.748;14.326;2022-08-01T02:11:19;3.33;;;2.08;;
51612;SDS011;37694;51.748;14.326;2022-08-01T02:13:54;2.60;;;2.40;;
51612;SDS011;37694;51.748;14.326;2022-08-01T02:16:24;2.42;;;2.22;;
51612;SDS011;37694;51.748;14.326;2022-08-01T02:18:52;2.58;;;2.35;;
51612;SDS011;37694;51.748;14.326;2022-08-01T02:21:20;5.60;;;2.22;;
51612;SDS011;37694;51.748;14.326;2022-08-01T02:23:51;2.10;;;1.90;;
51612;SDS011;37694;51.748;14.326;2022-08-01T02:26:19;2.58;;;2.30;;
51612;SDS011;37694;51.748;14.326;2022-08-01T02:28:53;2.97;;;2.38;;
51612;SDS011;37694;51.748;14.326;2022-08-01T02:31:25;3.03;;;2.50;;
51612;SDS011;37694;51.748;14.326;2022-08-01T02:34:04;5.13;;;2.10;;
51612;SDS011;37694;51.748;14.326;2022-08-01T02:36:33;2.17;;;2.08;;
51612;SDS011;37694;51.748;14.326;2022-08-01T02:39:03;2.42;;;2.22;;
51612;SDS011;37694;51.748;14.326;2022-08-01T02:41:33;2.25;;;1.70;;
51612;SDS011;37694;51.748;14.326;2022-08-01T02:44:05;2.83;;;2.53;;
51612;SDS011;37694;51.748;14.326;2022-08-01T02:46:34;3.13;;;2.55;;
51612;SDS011;37694;51.748;14.326;2022-08-01T02:49:04;5.43;;;2.00;;
51612;SDS011;37694;51.748;14.326;2022-08-01T02:51:32;2.33;;;2.13;;
51612;SDS011;37694;51.748;14.326;2022-08-01T02:54:00;2.42;;;2.22;;
51612;SDS011;37694;51.748;14.326;2022-08-01T02:56:27;2.67;;;2.10;;
51612;SDS011;37694;51.748;14.326;2022-08-01T02:59:00;2.28;;;2.17;;
51612;SDS011;37694;51.748;14.326;2022-08-01T03:01:32;2.65;;;2.45;;
51612;SDS011;37694;51.748;14.326;2022-08-01T03:04:02;4.88;;;2.30;;
51612;SDS011;37694;51.748;14.326;2022-08-01T03:06:32;5.97;;;2.33;;
51612;SDS011;37694;51.748;14.326;2022-08-01T03:08:59;2.17;;;1.92;;
51612;SDS011;37694;51.748;14.326;2022-08-01T03:11:26;2.58;;;2.38;;
51612;SDS011;37694;51.748;14.326;2022-08-01T03:13:54;2.72;;;2.17;;
51612;SDS011;37694;51.748;14.326;2022-08-01T03:16:21;5.70;;;2.38;;
51612;SDS011;37694;51.748;14.326;2022-08-01T03:18:49;4.72;;;2.90;;
51612;SDS011;37694;51.748;14.326;2022-08-01T03:21:18;3.72;;;2.47;;
51612;SDS011;37694;51.748;14.326;2022-08-01T03:23:46;2.45;;;2.33;;
51612;SDS011;37694;51.748;14.326;2022-08-01T03:26:14;4.43;;;2.72;;
51612;SDS011;37694;51.748;14.326;2022-08-01T03:28:40;7.30;;;2.60;;
51612;SDS011;37694;51.748;14.326;2022-08-01T03:31:09;3.03;;;2.30;;
51612;SDS011;37694;51.748;14.326;2022-08-01T03:33:37;2.40;;;2.28;;
51612;SDS011;37694;51.748;14.326;2022-08-01T03:36:03;4.45;;;2.38;;
51612;SDS011;37694;51.748;14.326;2022-08-01T03:38:33;3.83;;;2.38;;
51612;SDS011;37694;51.748;14.326;2022-08-01T03:41:05;10.88;;;2.40;;
51612;SDS011;37694;51.748;14.326;2022-08-01T03:46:10;3.70;;;2.30;;
51612;SDS011;37694;51.748;14.326;2022-08-01T03:48:42;2.30;;;2.15;;
51612;SDS011;37694;51.748;14.326;2022-08-01T03:51:12;5.32;;;2.55;;
51612;SDS011;37694;51.748;14.326;2022-08-01T03:53:38;2.95;;;2.45;;
51612;SDS011;37694;51.748;14.326;2022-08-01T03:56:07;2.90;;;2.60;;
51612;SDS011;37694;51.748;14.326;2022-08-01T03:58:33;3.28;;;2.20;;
51612;SDS011;37694;51.748;14.326;2022-08-01T04:01:01;3.15;;;2.88;;
51612;SDS011;37694;51.748;14.326;2022-08-01T04:03:27;2.60;;;2.30;;
51612;SDS011;37694;51.748;14.326;2022-08-01T04:05:53;3.67;;;2.63;;
51612;SDS011;37694;51.748;14.326;2022-08-01T04:08:19;5.45;;;1.92;;
51612;SDS011;37694;51.748;14.326;2022-08-01T04:10:45;3.45;;;2.30;;
51612;SDS011;37694;51.748;14.326;2022-08-01T04:13:10;8.00;;;2.53;;
51612;SDS011;37694;51.748;14.326;2022-08-01T04:15:36;4.00;;;2.25;;
51612;SDS011;37694;51.748;14.326;2022-08-01T04:18:01;2.75;;;2.50;;
51612;SDS011;37694;51.748;14.326;2022-08-01T04:20:27;2.40;;;2.20;;
51612;SDS011;37694;51.748;14.326;2022-08-01T04:22:53;2.65;;;2.22;;
51612;SDS011;37694;51.748;14.326;2022-08-01T04:25:24;4.80;;;2.17;;
51612;SDS011;37694;51.748;14.326;2022-08-01T04:27:52;2.40;;;2.20;;
51612;SDS011;37694;51.748;14.326;2022-08-01T04:30:20;6.75;;;2.75;;
51612;SDS011;37694;51.748;14.326;2022-08-01T04:32:49;2.83;;;2.47;;
51612;SDS011;37694;51.748;14.326;2022-08-01T04:35:17;2.85;;;2.55;;
51612;SDS011;37694;51.748;14.326;2022-08-01T04:37:45;4.90;;;2.15;;
51612;SDS011;37694;51.748;14.326;2022-08-01T04:40:13;2.63;;;2.30;;
51612;SDS011;37694;51.748;14.326;2022-08-01T04:42:39;9.50;;;2.67;;
51612;SDS011;37694;51.748;14.326;2022-08-01T04:45:06;8.02;;;2.13;;
51612;SDS011;37694;51.748;14.326;2022-08-01T04:47:33;15.57;;;2.58;;
51612;SDS011;37694;51.748;14.326;2022-08-01T04:50:00;7.53;;;2.28;;
51612;SDS011;37694;51.748;14.326;2022-08-01T04:52:32;4.57;;;2.45;;
51612;SDS011;37694;51.748;14.326;2022-08-01T04:54:59;6.43;;;2.60;;
51612;SDS011;37694;51.748;14.326;2022-08-01T04:57:25;5.55;;;2.60;;
51612;SDS011;37694;51.748;14.326;2022-08-01T04:59:51;5.22;;;2.53;;
51612;SDS011;37694;51.748;14.326;2022-08-01T05:02:21;7.35;;;2.97;;
51612;SDS011;37694;51.748;14.326;2022-08-01T05:04:48;6.03;;;2.00;;
51612;SDS011;37694;51.748;14.326;2022-08-01T05:07:14;8.43;;;3.28;;
51612;SDS011;37694;51.748;14.326;2022-08-01T05:09:40;6.72;;;2.28;;
51612;SDS011;37694;51.748;14.326;2022-08-01T05:12:07;2.10;;;1.98;;
51612;SDS011;37694;51.748;14.326;2022-08-01T05:14:33;4.20;;;2.33;;
51612;SDS011;37694;51.748;14.326;2022-08-01T05:17:00;9.93;;;2.15;;
51612;SDS011;37694;51.748;14.326;2022-08-01T05:19:28;9.35;;;2.00;;
51612;SDS011;37694;51.748;14.326;2022-08-01T05:22:05;7.63;;;2.50;;
51612;SDS011;37694;51.748;14.326;2022-08-01T05:24:34;3.92;;;2.17;;
51612;SDS011;37694;51.748;14.326;2022-08-01T05:27:00;18.15;;;2.90;;
51612;SDS011;37694;51.748;14.326;2022-08-01T05:29:27;8.63;;;2.70;;
51612;SDS011;37694;51.748;14.326;2022-08-01T05:31:52;5.65;;;2.10;;
51612;SDS011;37694;51.748;14.326;2022-08-01T05:34:19;9.68;;;2.38;;
51612;SDS011;37694;51.748;14.326;2022-08-01T05:36:45;8.45;;;2.80;;
51612;SDS011;37694;51.748;14.326;2022-08-01T05:39:11;4.28;;;2.38;;
51612;SDS011;37694;51.748;14.326;2022-08-01T05:41:37;9.10;;;2.13;;
51612;SDS011;37694;51.748;14.326;2022-08-01T05:44:03;16.55;;;3.97;;
51612;SDS011;37694;51.748;14.326;2022-08-01T05:46:29;121.60;;;79.38;;
51612;SDS011;37694;51.748;14.326;2022-08-01T05:48:58;25.40;;;5.63;;
51612;SDS011;37694;51.748;14.326;2022-08-01T05:51:25;24.15;;;3.70;;
51612;SDS011;37694;51.748;14.326;2022-08-01T05:53:51;14.48;;;4.30;;
51612;SDS011;37694;51.748;14.326;2022-08-01T05:56:17;10.25;;;3.33;;
51612;SDS011;37694;51.748;14.326;2022-08-01T05:58:44;12.77;;;2.85;;
51612;SDS011;37694;51.748;14.326;2022-08-01T06:01:09;23.98;;;4.80;;
51612;SDS011;37694;51.748;14.326;2022-08-01T06:03:35;24.55;;;3.60;;
51612;SDS011;37694;51.748;14.326;2022-08-01T06:06:01;21.38;;;3.20;;
51612;SDS011;37694;51.748;14.326;2022-08-01T06:08:27;26.25;;;3.60;;
51612;SDS011;37694;51.748;14.326;2022-08-01T06:10:53;24.48;;;4.78;;
51612;SDS011;37694;51.748;14.326;2022-08-01T06:13:18;39.25;;;5.07;;
51612;SDS011;37694;51.748;14.326;2022-08-01T06:15:44;57.60;;;5.88;;
51612;SDS011;37694;51.748;14.326;2022-08-01T06:18:11;30.75;;;5.47;;
51612;SDS011;37694;51.748;14.326;2022-08-01T06:20:37;28.52;;;4.75;;
51612;SDS011;37694;51.748;14.326;2022-08-01T06:23:02;41.10;;;4.63;;
51612;SDS011;37694;51.748;14.326;2022-08-01T06:25:28;31.75;;;4.63;;
51612;SDS011;37694;51.748;14.326;2022-08-01T06:27:54;27.35;;;5.78;;
51612;SDS011;37694;51.748;14.326;2022-08-01T06:30:20;26.75;;;5.32;;
51612;SDS011;37694;51.748;14.326;2022-08-01T06:32:46;21.77;;;4.53;;
51612;SDS011;37694;51.748;14.326;2022-08-01T06:35:12;27.40;;;5.38;;
51612;SDS011;37694;51.748;14.326;2022-08-01T06:37:38;34.05;;;4.53;;
51612;SDS011;37694;51.748;14.326;2022-08-01T06:40:04;22.30;;;3.58;;
51612;SDS011;37694;51.748;14.326;2022-08-01T06:42:31;20.63;;;3.53;;
51612;SDS011;37694;51.748;14.326;2022-08-01T06:45:05;13.07;;;2.85;;
51612;SDS011;37694;51.748;14.326;2022-08-01T06:47:32;15.23;;;2.97;;
51612;SDS011;37694;51.748;14.326;2022-08-01T06:49:57;19.65;;;3.70;;
51612;SDS011;37694;51.748;14.326;2022-08-01T06:52:23;16.30;;;3.65;;
51612;SDS011;37694;51.748;14.326;2022-08-01T06:54:49;11.73;;;2.80;;
51612;SDS011;37694;51.748;14.326;2022-08-01T06:57:15;17.50;;;3.13;;
51612;SDS011;37694;51.748;14.326;2022-08-01T06:59:41;9.65;;;2.28;;
51612;SDS011;37694;51.748;14.326;2022-08-01T07:02:06;10.25;;;2.40;;
51612;SDS011;37694;51.748;14.326;2022-08-01T07:04:32;6.53;;;1.90;;
51612;SDS011;37694;51.748;14.326;2022-08-01T07:06:58;6.20;;;2.33;;
51612;SDS011;37694;51.748;14.326;2022-08-01T07:09:24;9.93;;;2.25;;
51612;SDS011;37694;51.748;14.326;2022-08-01T07:11:49;7.47;;;2.03;;
51612;SDS011;37694;51.748;14.326;2022-08-01T07:14:17;8.15;;;2.63;;
51612;SDS011;37694;51.748;14.326;2022-08-01T07:16:43;5.25;;;1.90;;
51612;SDS011;37694;51.748;14.326;2022-08-01T07:19:08;5.40;;;1.95;;
51612;SDS011;37694;51.748;14.326;2022-08-01T07:21:34;7.18;;;1.88;;
51612;SDS011;37694;51.748;14.326;2022-08-01T07:23:59;5.60;;;1.88;;
51612;SDS011;37694;51.748;14.326;2022-08-01T07:26:25;7.75;;;1.40;;
51612;SDS011;37694;51.748;14.326;2022-08-01T07:28:52;2.60;;;1.30;;
51612;SDS011;37694;51.748;14.326;2022-08-01T07:31:18;8.38;;;2.20;;
51612;SDS011;37694;51.748;14.326;2022-08-01T07:33:44;4.03;;;1.52;;
51612;SDS011;37694;51.748;14.326;2022-08-01T07:36:09;3.83;;;1.20;;
51612;SDS011;37694;51.748;14.326;2022-08-01T07:38:35;3.88;;;1.60;;
51612;SDS011;37694;51.748;14.326;2022-08-01T07:41:00;3.50;;;1.25;;
51612;SDS011;37694;51.748;14.326;2022-08-01T07:43:27;4.22;;;1.30;;
51612;SDS011;37694;51.748;14.326;2022-08-01T07:45:53;2.00;;;1.10;;
51612;SDS011;37694;51.748;14.326;2022-08-01T07:48:18;4.03;;;1.08;;
51612;SDS011;37694;51.748;14.326;2022-08-01T07:50:48;2.55;;;0.95;;
51612;SDS011;37694;51.748;14.326;2022-08-01T07:53:15;2.30;;;0.85;;
51612;SDS011;37694;51.748;14.326;2022-08-01T07:55:40;7.13;;;1.17;;
51612;SDS011;37694;51.748;14.326;2022-08-01T07:58:06;0.95;;;0.70;;
51612;SDS011;37694;51.748;14.326;2022-08-01T08:00:31;2.78;;;0.75;;
51612;SDS011;37694;51.748;14.326;2022-08-01T08:02:57;1.88;;;0.75;;
51612;SDS011;37694;51.748;14.326;2022-08-01T08:05:24;2.70;;;1.17;;
51612;SDS011;37694;51.748;14.326;2022-08-01T08:07:50;1.10;;;0.80;;
51612;SDS011;37694;51.748;14.326;2022-08-01T08:10:16;0.77;;;0.50;;
51612;SDS011;37694;51.748;14.326;2022-08-01T08:12:41;1.08;;;1.00;;
51612;SDS011;37694;51.748;14.326;2022-08-01T08:15:07;0.52;;;0.52;;
51612;SDS011;37694;51.748;14.326;2022-08-01T08:17:33;0.75;;;0.50;;
51612;SDS011;37694;51.748;14.326;2022-08-01T08:20:00;1.15;;;0.60;;
51612;SDS011;37694;51.748;14.326;2022-08-01T08:22:27;0.95;;;0.73;;
51612;SDS011;37694;51.748;14.326;2022-08-01T08:24:52;1.25;;;0.60;;
51612;SDS011;37694;51.748;14.326;2022-08-01T08:27:18;0.65;;;0.52;;
51612;SDS011;37694;51.748;14.326;2022-08-01T08:29:43;1.35;;;0.55;;
51612;SDS011;37694;51.748;14.326;2022-08-01T08:32:09;3.88;;;0.50;;
51612;SDS011;37694;51.748;14.326;2022-08-01T08:34:34;0.73;;;0.50;;
51612;SDS011;37694;51.748;14.326;2022-08-01T08:37:00;0.40;;;0.40;;
51612;SDS011;37694;51.748;14.326;2022-08-01T08:39:26;0.75;;;0.70;;
51612;SDS011;37694;51.748;14.326;2022-08-01T08:41:54;0.85;;;0.82;;
51612;SDS011;37694;51.748;14.326;2022-08-01T08:44:21;1.33;;;0.68;;
51612;SDS011;37694;51.748;14.326;2022-08-01T08:46:47;0.40;;;0.40;;
51612;SDS011;37694;51.748;14.326;2022-08-01T08:49:17;0.57;;;0.43;;
51612;SDS011;37694;51.748;14.326;2022-08-01T08:51:46;0.55;;;0.43;;
51612;SDS011;37694;51.748;14.326;2022-08-01T08:54:14;0.50;;;0.50;;
51612;SDS011;37694;51.748;14.326;2022-08-01T08:56:39;2.33;;;0.60;;
51612;SDS011;37694;51.748;14.326;2022-08-01T08:59:06;0.50;;;0.50;;
51612;SDS011;37694;51.748;14.326;2022-08-01T09:01:32;0.73;;;0.50;;
51612;SDS011;37694;51.748;14.326;2022-08-01T09:03:59;0.52;;;0.40;;
51612;SDS011;37694;51.748;14.326;2022-08-01T09:06:28;0.57;;;0.50;;
51612;SDS011;37694;51.748;14.326;2022-08-01T09:08:55;0.40;;;0.40;;
51612;SDS011;37694;51.748;14.326;2022-08-01T09:11:21;0.88;;;0.55;;
51612;SDS011;37694;51.748;14.326;2022-08-01T09:16:36;1.85;;;0.30;;
51612;SDS011;37694;51.748;14.326;2022-08-01T09:19:07;0.20;;;0.20;;
51612;SDS011;37694;51.748;14.326;2022-08-01T09:21:35;0.28;;;0.28;;
51612;SDS011;37694;51.748;14.326;2022-08-01T09:24:01;0.57;;;0.40;;
51612;SDS011;37694;51.748;14.326;2022-08-01T09:26:33;0.60;;;0.60;;
51612;SDS011;37694;51.748;14.326;2022-08-01T09:29:04;0.10;;;0.10;;
51612;SDS011;37694;51.748;14.326;2022-08-01T09:31:41;0.50;;;0.40;;
51612;SDS011;37694;51.748;14.326;2022-08-01T09:34:08;0.82;;;0.32;;
51612;SDS011;37694;51.748;14.326;2022-08-01T09:36:48;0.35;;;0.35;;
51612;SDS011;37694;51.748;14.326;2022-08-01T09:39:23;0.30;;;0.30;;
51612;SDS011;37694;51.748;14.326;2022-08-01T09:41:52;0.30;;;0.30;;
51612;SDS011;37694;51.748;14.326;2022-08-01T09:44:19;0.30;;;0.30;;
51612;SDS011;37694;51.748;14.326;2022-08-01T09:47:00;0.30;;;0.30;;
51612;SDS011;37694;51.748;14.326;2022-08-01T09:49:27;0.55;;;0.30;;
51612;SDS011;37694;51.748;14.326;2022-08-01T09:51:58;0.40;;;0.40;;
51612;SDS011;37694;51.748;14.326;2022-08-01T09:54:37;0.20;;;0.20;;
51612;SDS011;37694;51.748;14.326;2022-08-01T09:59:40;0.20;;;0.20;;
51612;SDS011;37694;51.748;14.326;2022-08-01T10:02:08;0.30;;;0.30;;
51612;SDS011;37694;51.748;14.326;2022-08-01T10:04:36;0.20;;;0.20;;
51612;SDS011;37694;51.748;14.326;2022-08-01T10:07:07;0.50;;;0.50;;
51612;SDS011;37694;51.748;14.326;2022-08-01T10:09:34;0.55;;;0.40;;
51612;SDS011;37694;51.748;14.326;2022-08-01T10:12:01;0.35;;;0.35;;
51612;SDS011;37694;51.748;14.326;2022-08-01T10:14:28;0.30;;;0.30;;
51612;SDS011;37694;51.748;14.326;2022-08-01T10:16:56;0.30;;;0.30;;
51612;SDS011;37694;51.748;14.326;2022-08-01T10:19:25;0.30;;;0.30;;
51612;SDS011;37694;51.748;14.326;2022-08-01T10:21:52;0.20;;;0.20;;
51612;SDS011;37694;51.748;14.326;2022-08-01T10:24:19;0.22;;;0.22;;
51612;SDS011;37694;51.748;14.326;2022-08-01T10:26:49;0.20;;;0.20;;
51612;SDS011;37694;51.748;14.326;2022-08-01T10:29:17;0.57;;;0.47;;
51612;SDS011;37694;51.748;14.326;2022-08-01T10:31:45;0.30;;;0.30;;
51612;SDS011;37694;51.748;14.326;2022-08-01T10:34:12;0.55;;;0.55;;
51612;SDS011;37694;51.748;14.326;2022-08-01T10:36:41;0.40;;;0.40;;
51612;SDS011;37694;51.748;14.326;2022-08-01T10:39:10;0.70;;;0.30;;
51612;SDS011;37694;51.748;14.326;2022-08-01T10:41:36;0.50;;;0.50;;
51612;SDS011;37694;51.748;14.326;2022-08-01T10:44:03;0.30;;;0.30;;
51612;SDS011;37694;51.748;14.326;2022-08-01T10:46:31;0.63;;;0.20;;
51612;SDS011;37694;51.748;14.326;2022-08-01T10:49:01;0.20;;;0.20;;
51612;SDS011;37694;51.748;14.326;2022-08-01T10:51:34;0.30;;;0.30;;
51612;SDS011;37694;51.748;14.326;2022-08-01T10:54:05;0.20;;;0.20;;
51612;SDS011;37694;51.748;14.326;2022-08-01T10:56:38;0.35;;;0.35;;
51612;SDS011;37694;51.748;14.326;2022-08-01T10:59:14;0.20;;;0.20;;
51612;SDS011;37694;51.748;14.326;2022-08-01T11:01:54;0.40;;;0.40;;
51612;SDS011;37694;51.748;14.326;2022-08-01T11:07:06;0.35;;;0.35;;
51612;SDS011;37694;51.748;14.326;2022-08-01T11:09:40;0.20;;;0.20;;
51612;SDS011;37694;51.748;14.326;2022-08-01T11:12:15;0.28;;;0.28;;
51612;SDS011;37694;51.748;14.326;2022-08-01T11:20:06;0.57;;;0.30;;
51612;SDS011;37694;51.748;14.326;2022-08-01T11:23:08;0.57;;;0.28;;
51612;SDS011;37694;51.748;14.326;2022-08-01T11:30:54;1.00;;;0.30;;
51612;SDS011;37694;51.748;14.326;2022-08-01T11:41:13;0.25;;;0.25;;
51612;SDS011;37694;51.748;14.326;2022-08-01T11:57:09;0.20;;;0.10;;
51612;SDS011;37694;51.748;14.326;2022-08-01T11:59:37;0.65;;;0.10;;
51612;SDS011;37694;51.748;14.326;2022-08-01T12:02:13;0.65;;;0.17;;
51612;SDS011;37694;51.748;14.326;2022-08-01T12:04:52;0.10;;;0.10;;
51612;SDS011;37694;51.748;14.326;2022-08-01T12:07:22;0.50;;;0.20;;
51612;SDS011;37694;51.748;14.326;2022-08-01T12:09:51;0.10;;;0.10;;
51612;SDS011;37694;51.748;14.326;2022-08-01T12:12:25;1.25;;;0.20;;
51612;SDS011;37694;51.748;14.326;2022-08-01T12:14:52;0.28;;;0.10;;
51612;SDS011;37694;51.748;14.326;2022-08-01T12:17:20;0.20;;;0.10;;
51612;SDS011;37694;51.748;14.326;2022-08-01T12:19:53;0.10;;;0.10;;
51612;SDS011;37694;51.748;14.326;2022-08-01T12:22:21;0.45;;;0.10;;
51612;SDS011;37694;51.748;14.326;2022-08-01T12:24:47;0.10;;;0.10;;
51612;SDS011;37694;51.748;14.326;2022-08-01T12:27:13;0.10;;;0.10;;
51612;SDS011;37694;51.748;14.326;2022-08-01T12:29:49;0.68;;;0.08;;
51612;SDS011;37694;51.748;14.326;2022-08-01T12:35:15;0.52;;;0.10;;
51612;SDS011;37694;51.748;14.326;2022-08-01T12:37:46;0.38;;;0.15;;
51612;SDS011;37694;51.748;14.326;2022-08-01T12:40:18;0.30;;;0.30;;
51612;SDS011;37694;51.748;14.326;2022-08-01T12:42:46;0.00;;;0.00;;
51612;SDS011;37694;51.748;14.326;2022-08-01T12:45:21;0.38;;;0.10;;
51612;SDS011;37694;51.748;14.326;2022-08-01T12:47:56;0.10;;;0.10;;
51612;SDS011;37694;51.748;14.326;2022-08-01T12:50:25;0.10;;;0.10;;
51612;SDS011;37694;51.748;14.326;2022-08-01T12:52:56;0.10;;;0.10;;
51612;SDS011;37694;51.748;14.326;2022-08-01T12:55:23;0.08;;;0.08;;
51612;SDS011;37694;51.748;14.326;2022-08-01T12:57:50;0.10;;;0.10;;
51612;SDS011;37694;51.748;14.326;2022-08-01T13:00:37;1.08;;;0.10;;
51612;SDS011;37694;51.748;14.326;2022-08-01T13:03:08;0.05;;;0.05;;
51612;SDS011;37694;51.748;14.326;2022-08-01T13:05:46;0.10;;;0.10;;
51612;SDS011;37694;51.748;14.326;2022-08-01T13:08:19;0.20;;;0.13;;
51612;SDS011;37694;51.748;14.326;2022-08-01T13:10:46;0.10;;;0.10;;
51612;SDS011;37694;51.748;14.326;2022-08-01T13:13:13;0.20;;;0.20;;
51612;SDS011;37694;51.748;14.326;2022-08-01T13:15:40;0.10;;;0.10;;
51612;SDS011;37694;51.748;14.326;2022-08-01T13:20:50;0.60;;;0.10;;
51612;SDS011;37694;51.748;14.326;2022-08-01T13:23:31;0.00;;;0.00;;
51612;SDS011;37694;51.748;14.326;2022-08-01T13:25:57;0.13;;;0.13;;
51612;SDS011;37694;51.748;14.326;2022-08-01T13:28:24;0.10;;;0.10;;
51612;SDS011;37694;51.748;14.326;2022-08-01T13:30:55;0.10;;;0.10;;
51612;SDS011;37694;51.748;14.326;2022-08-01T13:33:26;0.10;;;0.10;;
51612;SDS011;37694;51.748;14.326;2022-08-01T13:35:54;0.20;;;0.20;;
51612;SDS011;37694;51.748;14.326;2022-08-01T13:38:21;0.15;;;0.15;;
51612;SDS011;37694;51.748;14.326;2022-08-01T13:41:07;0.95;;;0.55;;
51612;SDS011;37694;51.748;14.326;2022-08-01T13:43:34;0.13;;;0.13;;
51612;SDS011;37694;51.748;14.326;2022-08-01T13:46:00;0.32;;;0.20;;
51612;SDS011;37694;51.748;14.326;2022-08-01T13:48:29;0.10;;;0.10;;
51612;SDS011;37694;51.748;14.326;2022-08-01T13:50:55;0.22;;;0.20;;
51612;SDS011;37694;51.748;14.326;2022-08-01T13:53:21;0.38;;;0.35;;
51612;SDS011;37694;51.748;14.326;2022-08-01T13:55:46;0.20;;;0.20;;
51612;SDS011;37694;51.748;14.326;2022-08-01T13:58:12;0.20;;;0.20;;
51612;SDS011;37694;51.748;14.326;2022-08-01T14:00:38;1.05;;;0.20;;
51612;SDS011;37694;51.748;14.326;2022-08-01T14:03:03;0.30;;;0.30;;
51612;SDS011;37694;51.748;14.326;2022-08-01T14:05:29;0.10;;;0.10;;
51612;SDS011;37694;51.748;14.326;2022-08-01T14:07:55;0.20;;;0.20;;
51612;SDS011;37694;51.748;14.326;2022-08-01T14:10:20;0.22;;;0.22;;
51612;SDS011;37694;51.748;14.326;2022-08-01T14:12:49;0.20;;;0.20;;
51612;SDS011;37694;51.748;14.326;2022-08-01T14:15:15;0.10;;;0.10;;
51612;SDS011;37694;51.748;14.326;2022-08-01T14:17:41;0.20;;;0.20;;
51612;SDS011;37694;51.748;14.326;2022-08-01T14:20:07;0.25;;;0.25;;
51612;SDS011;37694;51.748;14.326;2022-08-01T14:22:33;0.93;;;0.30;;
51612;SDS011;37694;51.748;14.326;2022-08-01T14:24:58;0.25;;;0.25;;
51612;SDS011;37694;51.748;14.326;2022-08-01T14:27:24;0.32;;;0.22;;
51612;SDS011;37694;51.748;14.326;2022-08-01T14:29:50;0.22;;;0.22;;
51612;SDS011;37694;51.748;14.326;2022-08-01T14:32:15;0.20;;;0.20;;
51612;SDS011;37694;51.748;14.326;2022-08-01T14:34:41;0.20;;;0.20;;
51612;SDS011;37694;51.748;14.326;2022-08-01T14:37:07;0.35;;;0.30;;
51612;SDS011;37694;51.748;14.326;2022-08-01T14:39:32;0.30;;;0.30;;
51612;SDS011;37694;51.748;14.326;2022-08-01T14:41:58;0.30;;;0.30;;
51612;SDS011;37694;51.748;14.326;2022-08-01T14:44:23;0.30;;;0.30;;
51612;SDS011;37694;51.748;14.326;2022-08-01T14:46:49;0.30;;;0.30;;
51612;SDS011;37694;51.748;14.326;2022-08-01T14:49:15;0.30;;;0.30;;
51612;SDS011;37694;51.748;14.326;2022-08-01T14:51:40;0.20;;;0.20;;
51612;SDS011;37694;51.748;14.326;2022-08-01T14:54:06;1.10;;;0.30;;
51612;SDS011;37694;51.748;14.326;2022-08-01T14:56:31;0.22;;;0.22;;
51612;SDS011;37694;51.748;14.326;2022-08-01T14:58:57;1.25;;;0.30;;
51612;SDS011;37694;51.748;14.326;2022-08-01T15:01:23;0.40;;;0.40;;
51612;SDS011;37694;51.748;14.326;2022-08-01T15:03:49;0.30;;;0.30;;
51612;SDS011;37694;51.748;14.326;2022-08-01T15:06:15;0.30;;;0.30;;
51612;SDS011;37694;51.748;14.326;2022-08-01T15:08:42;3.03;;;0.32;;
51612;SDS011;37694;51.748;14.326;2022-08-01T15:11:08;1.20;;;0.32;;
51612;SDS011;37694;51.748;14.326;2022-08-01T15:13:33;0.65;;;0.30;;
51612;SDS011;37694;51.748;14.326;2022-08-01T15:15:59;0.55;;;0.43;;
51612;SDS011;37694;51.748;14.326;2022-08-01T15:18:25;35.85;;;13.80;;
51612;SDS011;37694;51.748;14.326;2022-08-01T15:20:51;6.88;;;1.20;;
51612;SDS011;37694;51.748;14.326;2022-08-01T15:23:17;1.05;;;0.38;;
51612;SDS011;37694;51.748;14.326;2022-08-01T15:25:43;1.23;;;0.38;;
51612;SDS011;37694;51.748;14.326;2022-08-01T15:28:09;1.73;;;0.40;;
51612;SDS011;37694;51.748;14.326;2022-08-01T15:30:35;0.77;;;0.50;;
51612;SDS011;37694;51.748;14.326;2022-08-01T15:33:00;6.47;;;1.30;;
51612;SDS011;37694;51.748;14.326;2022-08-01T15:35:26;3.72;;;0.50;;
51612;SDS011;37694;51.748;14.326;2022-08-01T15:37:52;0.32;;;0.30;;
51612;SDS011;37694;51.748;14.326;2022-08-01T15:40:17;0.50;;;0.50;;
51612;SDS011;37694;51.748;14.326;2022-08-01T15:42:43;0.43;;;0.30;;
51612;SDS011;37694;51.748;14.326;2022-08-01T15:45:09;1.92;;;0.50;;